createdAt,value
2023-03-21T00:02:13.389Z,2.60
2023-03-21T00:05:16.159Z,1.13
2023-03-21T00:08:18.800Z,2.78
2023-03-21T00:11:21.975Z,2.28
2023-03-21T00:14:26.104Z,2.47
2023-03-21T00:17:32.567Z,2.53
2023-03-21T00:20:34.539Z,3.50
2023-03-21T00:23:36.700Z,2.22
2023-03-21T00:26:38.698Z,2.03
2023-03-21T00:29:41.024Z,1.95
2023-03-21T00:32:55.233Z,2.90
2023-03-21T00:36:03.192Z,2.97
2023-03-21T00:39:08.878Z,3.45
2023-03-21T00:42:10.926Z,2.00
2023-03-21T00:45:12.973Z,2.35
2023-03-21T00:48:15.120Z,1.50
2023-03-21T00:51:26.589Z,3.67
2023-03-21T00:54:28.722Z,2.10
2023-03-21T00:57:38.684Z,3.40
2023-03-21T01:00:41.561Z,2.08
2023-03-21T01:03:50.822Z,3.35
2023-03-21T01:06:54.782Z,2.05
2023-03-21T01:09:56.836Z,1.05
2023-03-21T01:13:00.995Z,1.83
2023-03-21T01:16:07.198Z,2.38
2023-03-21T01:19:23.975Z,2.60
2023-03-21T01:22:27.284Z,1.55
2023-03-21T01:25:29.441Z,1.88
2023-03-21T01:28:31.987Z,1.20
2023-03-21T01:31:34.185Z,1.80
2023-03-21T01:34:36.308Z,2.03
2023-03-21T01:37:38.260Z,1.25
2023-03-21T01:40:41.643Z,1.50
2023-03-21T01:43:53.126Z,2.92
2023-03-21T01:47:11.141Z,1.58
2023-03-21T01:50:43.634Z,1.67
2023-03-21T01:53:57.477Z,2.00
2023-03-21T01:57:04.048Z,2.67
2023-03-21T02:00:12.152Z,1.67
2023-03-21T02:03:38.521Z,1.77
2023-03-21T02:07:14.882Z,1.73
2023-03-21T02:10:25.786Z,2.15
2023-03-21T02:13:30.867Z,2.67
2023-03-21T02:16:51.821Z,1.30
2023-03-21T02:20:11.402Z,1.38
2023-03-21T02:23:44.746Z,2.60
2023-03-21T02:27:18.839Z,1.65
2023-03-21T02:31:04.459Z,1.25
2023-03-21T02:34:11.058Z,1.30
2023-03-21T02:37:28.863Z,0.90
2023-03-21T02:40:43.480Z,0.52
2023-03-21T02:43:52.164Z,0.90
2023-03-21T02:47:06.860Z,0.70
2023-03-21T02:50:24.049Z,1.30
2023-03-21T02:53:34.094Z,0.60
2023-03-21T02:56:40.436Z,1.30
2023-03-21T02:59:53.275Z,0.90
2023-03-21T03:03:09.670Z,0.88
2023-03-21T03:06:29.234Z,0.90
2023-03-21T03:09:53.274Z,0.40
2023-03-21T03:13:20.408Z,0.45
2023-03-21T03:16:36.877Z,1.15
2023-03-21T03:19:57.234Z,0.50
2023-03-21T03:23:25.010Z,1.17
2023-03-21T03:26:46.546Z,0.88
2023-03-21T03:29:50.252Z,0.80
2023-03-21T03:33:02.347Z,0.68
2023-03-21T03:36:07.033Z,1.17
2023-03-21T03:39:13.497Z,1.30
2023-03-21T03:42:28.372Z,0.80
2023-03-21T03:46:11.016Z,0.45
2023-03-21T03:49:18.851Z,0.45
2023-03-21T03:52:27.993Z,0.87
2023-03-21T03:55:45.660Z,0.65
2023-03-21T03:58:50.435Z,0.85
2023-03-21T04:01:56.408Z,0.52
2023-03-21T04:04:58.589Z,0.45
2023-03-21T04:08:00.547Z,0.82
2023-03-21T04:11:13.261Z,0.77
2023-03-21T04:14:15.920Z,0.87
2023-03-21T04:17:19.909Z,0.68
2023-03-21T04:20:34.163Z,0.90
2023-03-21T04:23:40.304Z,0.38
2023-03-21T04:26:43.414Z,0.93
2023-03-21T04:30:15.308Z,0.57
2023-03-21T04:33:26.027Z,0.80
2023-03-21T04:36:33.342Z,1.27
2023-03-21T04:39:36.926Z,1.00
2023-03-21T04:42:38.962Z,0.47
2023-03-21T04:45:41.316Z,0.93
2023-03-21T04:48:44.379Z,0.73
2023-03-21T04:51:46.721Z,0.80
2023-03-21T04:54:53.704Z,0.70
2023-03-21T04:57:55.657Z,0.67
2023-03-21T05:00:57.718Z,0.35
2023-03-21T05:04:01.845Z,0.40
2023-03-21T05:07:06.203Z,0.98
2023-03-21T05:10:11.979Z,0.45
2023-03-21T05:13:15.801Z,0.77
2023-03-21T05:16:17.825Z,0.73
2023-03-21T05:19:22.910Z,0.53
2023-03-21T05:22:28.226Z,0.90
2023-03-21T05:25:38.350Z,0.70
2023-03-21T05:28:51.582Z,0.38
2023-03-21T05:31:54.387Z,0.30
2023-03-21T05:34:56.568Z,1.00
2023-03-21T05:37:58.608Z,1.05
2023-03-21T05:41:03.121Z,0.60
2023-03-21T05:44:07.165Z,0.63
2023-03-21T05:47:10.534Z,0.70
2023-03-21T05:50:17.976Z,0.93
2023-03-21T05:53:29.031Z,0.47
2023-03-21T05:56:31.602Z,0.43
2023-03-21T05:59:42.915Z,0.82
2023-03-21T06:02:45.778Z,0.70
2023-03-21T06:06:06.929Z,0.63
2023-03-21T06:09:14.110Z,0.50
2023-03-21T06:12:20.521Z,0.70
2023-03-21T06:15:50.894Z,0.70
2023-03-21T06:18:57.076Z,0.38
2023-03-21T06:22:12.389Z,0.73
2023-03-21T06:25:16.765Z,0.93
2023-03-21T06:28:19.236Z,0.40
2023-03-21T06:31:22.832Z,2.00
2023-03-21T06:34:26.758Z,1.33
2023-03-21T06:37:28.897Z,0.23
2023-03-21T06:40:31.866Z,1.10
2023-03-21T06:43:34.360Z,0.82
2023-03-21T06:46:38.459Z,0.80
2023-03-21T06:49:42.919Z,0.65
2023-03-21T06:52:47.181Z,0.83
2023-03-21T06:55:51.377Z,0.90
2023-03-21T06:58:54.701Z,0.30
2023-03-21T07:02:20.480Z,1.02
2023-03-21T07:05:32.198Z,0.93
2023-03-21T07:08:34.669Z,0.30
2023-03-21T07:11:38.027Z,0.80
2023-03-21T07:14:40.780Z,0.45
2023-03-21T07:17:42.897Z,1.05
2023-03-21T07:20:51.139Z,0.50
2023-03-21T07:23:53.552Z,0.30
2023-03-21T07:26:56.265Z,0.73
2023-03-21T07:29:58.295Z,1.08
2023-03-21T07:33:00.690Z,0.63
2023-03-21T07:36:03.094Z,0.43
2023-03-21T07:39:06.361Z,0.67
2023-03-21T07:42:11.914Z,0.52
2023-03-21T07:45:21.534Z,0.82
2023-03-21T07:48:24.903Z,0.60
2023-03-21T07:51:28.381Z,1.08
2023-03-21T07:54:31.039Z,0.90
2023-03-21T07:57:33.757Z,0.30
2023-03-21T08:00:36.338Z,0.70
2023-03-21T08:03:39.553Z,0.80
2023-03-21T08:06:42.470Z,0.95
2023-03-21T08:09:44.825Z,0.73
2023-03-21T08:12:47.142Z,1.05
2023-03-21T08:15:49.420Z,0.77
2023-03-21T08:18:51.469Z,0.43
2023-03-21T08:21:53.673Z,0.52
2023-03-21T08:24:55.956Z,0.33
2023-03-21T08:27:57.984Z,0.60
2023-03-21T08:31:00.009Z,0.30
2023-03-21T08:34:02.508Z,0.38
2023-03-21T08:37:04.511Z,0.93
2023-03-21T08:40:11.363Z,0.60
2023-03-21T08:43:14.908Z,0.45
2023-03-21T08:46:17.072Z,0.55
2023-03-21T08:49:19.265Z,0.40
2023-03-21T08:52:21.412Z,0.20
2023-03-21T08:55:24.220Z,0.40
2023-03-21T08:58:26.494Z,0.57
2023-03-21T09:01:28.468Z,0.50
2023-03-21T09:04:31.214Z,0.77
2023-03-21T09:07:36.225Z,0.50
2023-03-21T09:10:38.445Z,0.63
2023-03-21T09:13:40.898Z,0.87
2023-03-21T09:16:42.993Z,0.77
2023-03-21T09:19:46.590Z,0.35
2023-03-21T09:22:50.396Z,0.40
2023-03-21T09:25:52.609Z,0.40
2023-03-21T09:28:58.751Z,0.47
2023-03-21T09:32:01.728Z,0.40
2023-03-21T09:35:05.843Z,1.25
2023-03-21T09:38:08.194Z,0.80
2023-03-21T09:41:32.308Z,0.50
2023-03-21T09:44:52.790Z,0.40
2023-03-21T09:47:57.013Z,0.30
2023-03-21T09:50:59.509Z,0.43
2023-03-21T09:54:08.693Z,0.43
2023-03-21T09:57:34.336Z,0.50
2023-03-21T10:00:40.163Z,0.70
2023-03-21T10:03:43.961Z,0.88
2023-03-21T10:06:53.777Z,0.40
2023-03-21T10:09:56.365Z,0.32
2023-03-21T10:12:58.397Z,0.43
2023-03-21T10:16:04.218Z,0.47
2023-03-21T10:19:15.599Z,0.35
2023-03-21T10:22:17.838Z,0.40
2023-03-21T10:25:28.220Z,0.30
2023-03-21T10:28:50.008Z,0.30
2023-03-21T10:31:54.904Z,0.37
2023-03-21T10:34:58.542Z,0.30
2023-03-21T10:38:01.619Z,0.30
2023-03-21T10:41:03.619Z,0.73
2023-03-21T10:44:10.784Z,0.20
2023-03-21T10:47:19.223Z,0.20
2023-03-21T10:50:25.725Z,0.30
2023-03-21T10:53:33.384Z,0.43
2023-03-21T10:56:38.328Z,0.30
2023-03-21T10:59:47.277Z,0.20
2023-03-21T11:02:53.124Z,0.20
2023-03-21T11:06:04.242Z,0.22
2023-03-21T11:09:16.394Z,0.50
2023-03-21T11:12:37.239Z,0.52
2023-03-21T11:16:03.897Z,0.50
2023-03-21T11:19:16.121Z,0.30
2023-03-21T11:22:22.068Z,0.40
2023-03-21T11:25:42.777Z,0.40
2023-03-21T11:28:46.637Z,0.30
2023-03-21T11:31:49.098Z,0.20
2023-03-21T11:34:59.963Z,0.30
2023-03-21T11:38:02.195Z,0.30
2023-03-21T11:41:05.165Z,0.60
2023-03-21T11:44:23.252Z,0.30
2023-03-21T11:47:25.604Z,0.30
2023-03-21T11:50:36.564Z,0.50
2023-03-21T11:53:57.098Z,0.30
2023-03-21T11:57:18.272Z,0.28
2023-03-21T12:00:27.894Z,0.30
2023-03-21T12:03:48.752Z,0.50
2023-03-21T12:06:56.508Z,0.60
2023-03-21T12:10:35.292Z,0.57
2023-03-21T12:13:52.168Z,0.20
2023-03-21T12:17:09.469Z,0.28
2023-03-21T12:20:30.791Z,0.20
2023-03-21T12:23:46.880Z,0.40
2023-03-21T12:27:15.633Z,0.30
2023-03-21T12:30:59.383Z,0.43
2023-03-21T12:34:13.366Z,0.32
2023-03-21T12:37:37.292Z,0.30
2023-03-21T12:40:48.721Z,0.30
2023-03-21T12:43:55.416Z,0.30
2023-03-21T12:47:02.387Z,0.28
2023-03-21T12:50:18.386Z,0.20
2023-03-21T12:53:49.839Z,0.33
2023-03-21T12:57:01.777Z,0.40
2023-03-21T13:00:26.451Z,0.32
2023-03-21T13:03:40.456Z,0.30
2023-03-21T13:06:46.599Z,0.40
2023-03-21T13:09:48.918Z,0.20
2023-03-21T13:13:07.699Z,0.30
2023-03-21T13:16:12.749Z,0.20
2023-03-21T13:19:47.650Z,0.20
2023-03-21T13:22:49.889Z,0.40
2023-03-21T13:25:55.785Z,0.50
2023-03-21T13:28:58.535Z,0.33
2023-03-21T13:32:11.069Z,0.40
2023-03-21T13:35:27.552Z,0.20
2023-03-21T13:38:30.592Z,0.65
2023-03-21T13:41:39.065Z,0.93
2023-03-21T13:44:50.171Z,1.30
2023-03-21T13:48:07.426Z,0.60
2023-03-21T13:51:10.271Z,0.30
2023-03-21T13:54:15.494Z,0.50
2023-03-21T13:57:33.275Z,0.47
2023-03-21T14:00:39.863Z,0.60
2023-03-21T14:03:44.301Z,0.50
2023-03-21T14:06:58.120Z,0.30
2023-03-21T14:10:05.172Z,0.50
2023-03-21T14:13:16.294Z,0.47
2023-03-21T14:16:19.827Z,0.50
2023-03-21T14:19:29.898Z,0.20
2023-03-21T14:22:32.054Z,0.80
2023-03-21T14:25:44.724Z,0.25
2023-03-21T14:28:51.936Z,0.40
2023-03-21T14:32:00.156Z,0.57
2023-03-21T14:35:02.792Z,0.32
2023-03-21T14:38:08.905Z,0.65
2023-03-21T14:41:26.403Z,0.30
2023-03-21T14:44:57.043Z,0.40
2023-03-21T14:48:20.896Z,0.70
2023-03-21T14:51:23.771Z,0.50
2023-03-21T14:54:27.394Z,0.35
2023-03-21T14:57:32.474Z,0.35
2023-03-21T15:00:35.658Z,0.60
2023-03-21T15:03:37.975Z,0.40
2023-03-21T15:07:04.986Z,0.75
2023-03-21T15:10:17.374Z,0.38
2023-03-21T15:13:22.383Z,0.35
2023-03-21T15:16:24.380Z,0.27
2023-03-21T15:19:33.712Z,0.67
2023-03-21T15:22:40.876Z,0.38
2023-03-21T15:25:43.250Z,0.30
2023-03-21T15:28:47.887Z,0.50
2023-03-21T15:31:50.293Z,0.20
2023-03-21T15:34:56.381Z,0.40
2023-03-21T15:37:59.402Z,0.63
2023-03-21T15:41:20.401Z,0.40
2023-03-21T15:44:22.868Z,0.43
2023-03-21T15:47:51.410Z,0.30
2023-03-21T15:51:05.968Z,0.40
2023-03-21T15:54:15.273Z,0.70
2023-03-21T15:57:29.958Z,0.55
2023-03-21T16:00:44.470Z,0.50
2023-03-21T16:03:54.831Z,0.53
2023-03-21T16:07:15.436Z,0.30
2023-03-21T16:10:31.464Z,0.50
2023-03-21T16:13:33.609Z,0.50
2023-03-21T16:16:36.120Z,0.28
2023-03-21T16:19:39.296Z,0.50
2023-03-21T16:22:41.364Z,0.40
2023-03-21T16:25:44.361Z,0.40
2023-03-21T16:28:46.442Z,0.28
2023-03-21T16:31:48.700Z,0.30
2023-03-21T16:34:53.697Z,0.53
2023-03-21T16:37:55.874Z,0.60
2023-03-21T16:40:58.059Z,0.40
2023-03-21T16:44:01.361Z,0.38
2023-03-21T16:47:03.333Z,0.50
2023-03-21T16:50:31.258Z,0.37
2023-03-21T16:53:33.158Z,0.27
2023-03-21T16:56:37.557Z,0.47
2023-03-21T16:59:40.845Z,0.90
2023-03-21T17:02:43.204Z,1.08
2023-03-21T17:05:45.631Z,0.97
2023-03-21T17:08:48.022Z,1.40
2023-03-21T17:11:50.519Z,1.30
2023-03-21T17:14:53.585Z,1.60
2023-03-21T17:17:55.980Z,1.13
2023-03-21T17:20:57.938Z,1.40
2023-03-21T17:23:59.884Z,1.37
2023-03-21T17:27:03.661Z,1.00
2023-03-21T17:30:27.458Z,1.48
2023-03-21T17:33:30.072Z,2.17
2023-03-21T17:36:35.555Z,2.27
2023-03-21T17:39:38.357Z,2.15
2023-03-21T17:42:40.469Z,2.08
2023-03-21T17:45:43.812Z,2.50
2023-03-21T17:48:46.200Z,1.42
2023-03-21T17:51:48.257Z,0.87
2023-03-21T17:54:50.238Z,2.05
2023-03-21T17:57:52.655Z,1.85
2023-03-21T18:00:54.634Z,1.52
2023-03-21T18:03:57.760Z,0.90
2023-03-21T18:07:01.132Z,1.17
2023-03-21T18:10:04.335Z,1.40
2023-03-21T18:13:06.554Z,1.08
2023-03-21T18:16:12.084Z,1.90
2023-03-21T18:19:14.613Z,1.73
2023-03-21T18:22:18.054Z,1.40
2023-03-21T18:25:20.160Z,2.47
2023-03-21T18:28:22.451Z,2.25
2023-03-21T18:31:25.262Z,0.98
2023-03-21T18:34:27.829Z,1.10
2023-03-21T18:37:35.377Z,1.63
2023-03-21T18:40:37.769Z,0.93
2023-03-21T18:44:07.017Z,1.42
2023-03-21T18:47:04.433Z,1.33
2023-03-21T18:50:14.493Z,1.45
2023-03-21T18:53:17.487Z,1.40
2023-03-21T18:57:05.937Z,1.83
2023-03-21T18:59:42.278Z,1.27
2023-03-21T19:02:48.310Z,2.42
2023-03-21T19:05:50.764Z,1.50
2023-03-21T19:08:53.640Z,1.57
2023-03-21T19:11:55.737Z,2.13
2023-03-21T19:14:58.076Z,1.85
2023-03-21T19:18:34.260Z,2.03
2023-03-21T19:21:22.434Z,1.25
2023-03-21T19:24:28.180Z,2.93
2023-03-21T19:27:31.050Z,2.70
2023-03-21T19:30:34.199Z,1.80
2023-03-21T19:33:36.881Z,2.00
2023-03-21T19:36:39.094Z,2.40
2023-03-21T19:39:41.180Z,3.13
2023-03-21T19:42:43.358Z,2.75
2023-03-21T19:45:48.637Z,1.58
2023-03-21T19:48:50.875Z,4.00
2023-03-21T19:51:53.375Z,3.77
2023-03-21T19:54:55.576Z,2.85
2023-03-21T19:57:57.917Z,4.18
2023-03-21T20:01:00.695Z,1.83
2023-03-21T20:04:02.952Z,2.00
2023-03-21T20:07:05.116Z,3.15
2023-03-21T20:10:08.746Z,2.50
2023-03-21T20:13:11.052Z,1.17
2023-03-21T20:16:13.467Z,1.95
2023-03-21T20:19:16.256Z,2.80
2023-03-21T20:22:27.274Z,1.90
2023-03-21T20:25:41.874Z,2.55
2023-03-21T20:28:56.661Z,1.58
2023-03-21T20:32:07.915Z,1.60
2023-03-21T20:35:20.645Z,1.23
2023-03-21T20:38:31.012Z,1.17
2023-03-21T20:41:33.057Z,1.30
2023-03-21T20:44:55.943Z,0.90
2023-03-21T20:47:57.669Z,0.52
2023-03-21T20:51:39.255Z,0.90
2023-03-21T20:54:27.665Z,0.77
2023-03-21T20:57:30.262Z,0.50
2023-03-21T21:00:32.362Z,0.50
2023-03-21T21:03:39.259Z,0.30
2023-03-21T21:06:41.289Z,1.13
2023-03-21T21:09:44.858Z,0.80
2023-03-21T21:12:46.985Z,0.80
2023-03-21T21:15:48.939Z,1.02
2023-03-21T21:18:51.330Z,0.82
2023-03-21T21:21:53.365Z,0.60
2023-03-21T21:24:55.356Z,1.17
2023-03-21T21:27:57.756Z,0.87
2023-03-21T21:31:27.207Z,0.93
2023-03-21T21:34:29.126Z,0.63
2023-03-21T21:37:33.956Z,0.93
2023-03-21T21:40:36.400Z,0.90
2023-03-21T21:43:38.503Z,0.47
2023-03-21T21:46:40.802Z,0.88
2023-03-21T21:49:43.448Z,0.70
2023-03-21T21:52:52.673Z,0.52
2023-03-21T21:55:56.008Z,0.70
2023-03-21T21:59:03.122Z,0.77
2023-03-21T22:02:05.980Z,0.40
2023-03-21T22:05:08.858Z,0.35
2023-03-21T22:08:11.418Z,0.82
2023-03-21T22:11:14.722Z,1.00
2023-03-21T22:14:16.844Z,0.50
2023-03-21T22:17:18.838Z,1.83
2023-03-21T22:20:21.384Z,1.05
2023-03-21T22:23:26.000Z,0.77
2023-03-21T22:26:27.939Z,0.57
2023-03-21T22:29:30.101Z,0.82
2023-03-21T22:32:32.814Z,0.70
2023-03-21T22:35:34.932Z,0.43
2023-03-21T22:38:38.200Z,0.90
2023-03-21T22:41:40.769Z,1.08
2023-03-21T22:44:42.778Z,1.00
2023-03-21T22:47:44.820Z,0.75
2023-03-21T22:50:47.455Z,1.60
2023-03-21T22:53:49.423Z,1.13
2023-03-21T22:56:51.494Z,1.00
2023-03-21T22:59:53.459Z,1.27
2023-03-21T23:02:55.492Z,0.70
2023-03-21T23:06:04.026Z,0.93
2023-03-21T23:09:06.657Z,0.60
2023-03-21T23:12:08.683Z,0.98
2023-03-21T23:15:11.381Z,0.77
2023-03-21T23:18:13.251Z,0.47
2023-03-21T23:21:16.114Z,0.80
2023-03-21T23:24:18.073Z,1.02
2023-03-21T23:27:20.046Z,0.77
2023-03-21T23:30:22.182Z,1.23
2023-03-21T23:33:27.329Z,0.60
2023-03-21T23:36:30.457Z,0.75
2023-03-21T23:39:33.781Z,0.70
2023-03-21T23:42:36.300Z,1.38
2023-03-21T23:45:38.390Z,0.40
2023-03-21T23:48:41.748Z,1.25
2023-03-21T23:51:44.730Z,0.40
2023-03-21T23:54:46.712Z,0.90
2023-03-21T23:57:49.798Z,0.30
